Time;durP1;ratioP1;P1;durP2;ratioP2;P2;SDS_P1;SDS_P2;PMS_P1;PMS_P2;Temp;Humidity;BMP_temperature;BMP_pressure;BME280_temperature;BME280_humidity;BME280_pressure;Samples;Min_cycle;Max_cycle;Signal;HPM_P1;HPM_P2
2024/03/23 00:01:45;;;;;;;58.17;12.13;;;;;;;10.38;100.00;97252.25;4951871;28;20046;-59
2024/03/23 00:04:12;;;;;;;44.55;13.13;;;;;;;9.96;100.00;97245.03;4950369;28;20344;-60
2024/03/23 00:06:39;;;;;;;59.75;12.35;;;;;;;10.06;100.00;97250.97;4946435;28;20071;-58
2024/03/23 00:09:06;;;;;;;42.08;11.52;;;;;;;10.26;100.00;97241.19;4947114;28;20059;-59
2024/03/23 00:11:32;;;;;;;79.50;14.05;;;;;;;10.23;100.00;97248.13;4948064;28;20143;-58
2024/03/23 00:13:58;;;;;;;45.50;11.68;;;;;;;9.96;100.00;97242.44;4950925;28;20511;-58
2024/03/23 00:16:26;;;;;;;81.07;12.98;;;;;;;9.56;100.00;97230.78;4946873;28;20038;-59
2024/03/23 00:18:52;;;;;;;61.90;10.80;;;;;;;9.69;100.00;97227.19;4949487;28;20027;-58
2024/03/23 00:21:19;;;;;;;54.08;11.35;;;;;;;9.85;100.00;97229.59;4947077;28;20115;-60
2024/03/23 00:23:46;;;;;;;52.83;10.65;;;;;;;10.05;100.00;97228.50;4949493;28;20352;-59
2024/03/23 00:26:12;;;;;;;58.72;12.45;;;;;;;9.89;100.00;97218.28;4947525;28;20036;-62
2024/03/23 00:28:38;;;;;;;54.97;11.73;;;;;;;9.81;100.00;97217.53;4948896;28;20257;-61
2024/03/23 00:31:05;;;;;;;36.08;9.70;;;;;;;9.67;100.00;97212.50;4947417;28;20058;-62
2024/03/23 00:33:31;;;;;;;73.68;12.00;;;;;;;9.80;100.00;97211.47;4947583;28;20530;-60
2024/03/23 00:35:58;;;;;;;40.35;10.13;;;;;;;9.57;100.00;97206.59;4954345;28;20508;-61
2024/03/23 00:38:24;;;;;;;65.10;13.30;;;;;;;9.43;100.00;97211.94;4947907;28;20027;-58
2024/03/23 00:40:54;;;;;;;48.95;10.93;;;;;;;9.37;100.00;97198.16;4947806;28;20037;-59
2024/03/23 00:43:20;;;;;;;20.67;9.07;;;;;;;9.34;100.00;97195.56;4949825;28;20361;-60
2024/03/23 00:45:47;;;;;;;39.15;10.77;;;;;;;9.11;100.00;97188.03;4950758;28;20038;-59
2024/03/23 00:48:14;;;;;;;39.40;12.63;;;;;;;9.05;100.00;97188.13;4955059;28;20037;-62
2024/03/23 00:50:41;;;;;;;37.42;9.88;;;;;;;9.10;100.00;97187.16;4954269;28;20045;-58
2024/03/23 00:53:08;;;;;;;45.38;16.05;;;;;;;8.99;100.00;97178.66;4956848;28;20090;-59
2024/03/23 00:55:33;;;;;;;78.10;12.48;;;;;;;9.02;100.00;97167.38;4952545;28;20043;-60
2024/03/23 00:57:58;;;;;;;34.88;8.75;;;;;;;9.21;100.00;97168.06;4955921;28;20037;-59
2024/03/23 01:00:24;;;;;;;84.65;12.65;;;;;;;9.07;100.00;97163.00;4952059;28;20027;-58
2024/03/23 01:02:49;;;;;;;26.33;8.90;;;;;;;9.14;100.00;97159.47;4954680;28;20030;-59
2024/03/23 01:05:14;;;;;;;35.63;9.98;;;;;;;8.71;100.00;97148.66;4953063;28;20452;-59
2024/03/23 01:07:40;;;;;;;41.75;9.65;;;;;;;9.05;100.00;97144.03;4953872;28;20577;-58
2024/03/23 01:10:05;;;;;;;38.80;9.65;;;;;;;8.96;100.00;97144.97;4955533;28;20737;-59
2024/03/23 01:12:31;;;;;;;78.60;12.02;;;;;;;8.88;100.00;97139.88;4952265;28;20478;-60
2024/03/23 01:14:56;;;;;;;32.65;9.82;;;;;;;8.93;100.00;97137.22;4956179;28;20046;-59
2024/03/23 01:17:21;;;;;;;43.17;10.68;;;;;;;8.87;100.00;97145.06;4953115;28;20053;-58
2024/03/23 01:19:47;;;;;;;30.85;9.10;;;;;;;8.99;100.00;97140.59;4954525;28;20079;-58
2024/03/23 01:22:12;;;;;;;33.65;9.80;;;;;;;8.70;100.00;97135.72;4954203;28;20396;-59
2024/03/23 01:24:37;;;;;;;66.95;11.30;;;;;;;8.77;100.00;97133.91;4954080;28;20495;-60
2024/03/23 01:27:03;;;;;;;38.72;10.07;;;;;;;9.01;100.00;97132.81;4955360;28;20038;-60
2024/03/23 01:29:29;;;;;;;81.55;14.25;;;;;;;8.97;100.00;97124.19;4953664;28;20023;-60
2024/03/23 01:31:54;;;;;;;29.40;9.60;;;;;;;8.85;100.00;97126.94;4954455;28;20129;-59
2024/03/23 01:34:20;;;;;;;40.15;9.48;;;;;;;9.20;100.00;97120.47;4954173;28;20078;-59
2024/03/23 01:36:46;;;;;;;46.38;10.20;;;;;;;9.57;100.00;97118.31;4954372;28;20051;-59
2024/03/23 01:39:11;;;;;;;31.05;9.57;;;;;;;9.60;100.00;97108.75;4954652;28;20034;-58
2024/03/23 01:41:39;;;;;;;54.05;11.32;;;;;;;9.04;100.00;97119.81;4953205;28;20491;-59
2024/03/23 01:44:08;;;;;;;49.33;12.18;;;;;;;9.10;100.00;97109.34;4954640;28;20151;-58
2024/03/23 01:46:38;;;;;;;52.40;12.32;;;;;;;9.30;100.00;97109.97;4952320;28;20639;-59
2024/03/23 01:49:05;;;;;;;46.40;13.20;;;;;;;9.07;100.00;97111.13;4984946;28;20117;-60
2024/03/23 01:51:32;;;;;;;76.32;11.27;;;;;;;8.97;100.00;97105.19;4950061;28;20130;-58
2024/03/23 01:54:00;;;;;;;38.40;9.10;;;;;;;9.24;100.00;97101.41;4951804;28;20452;-60
2024/03/23 01:56:26;;;;;;;56.53;10.95;;;;;;;8.88;100.00;97097.50;4950830;28;20327;-58
2024/03/23 01:58:51;;;;;;;23.67;8.30;;;;;;;8.44;100.00;97093.59;4952856;28;20034;-60
2024/03/23 02:01:16;;;;;;;38.33;7.53;;;;;;;8.12;100.00;97083.50;4955421;28;20150;-57
2024/03/23 02:03:42;;;;;;;49.17;11.23;;;;;;;8.43;100.00;97084.09;4953217;28;21160;-59
2024/03/23 02:06:08;;;;;;;33.53;9.48;;;;;;;8.38;100.00;97080.69;4953490;28;20039;-60
2024/03/23 02:08:34;;;;;;;68.47;11.00;;;;;;;8.40;100.00;97073.78;4951728;28;20050;-60
2024/03/23 02:10:59;;;;;;;50.30;10.63;;;;;;;8.80;100.00;97069.09;4952213;28;20414;-59
2024/03/23 02:13:25;;;;;;;51.47;11.80;;;;;;;8.90;100.00;97073.28;4951873;28;20395;-60
2024/03/23 02:15:50;;;;;;;32.55;9.18;;;;;;;8.91;100.00;97064.59;4952890;28;20030;-61
2024/03/23 02:18:15;;;;;;;46.28;12.05;;;;;;;9.77;100.00;97064.34;4956087;28;20029;-60
2024/03/23 02:20:41;;;;;;;70.70;12.68;;;;;;;9.37;100.00;97054.53;4952820;28;20035;-59
2024/03/23 02:23:13;;;;;;;38.28;11.15;;;;;;;9.45;100.00;97052.69;4955085;28;20173;-61
2024/03/23 02:25:39;;;;;;;71.47;13.73;;;;;;;9.15;100.00;97047.03;4953196;28;20050;-60
2024/03/23 02:28:04;;;;;;;43.38;11.20;;;;;;;8.83;100.00;97040.50;4954384;28;20031;-60
2024/03/23 02:30:30;;;;;;;79.50;12.88;;;;;;;9.37;100.00;97041.56;4952593;28;20482;-57
2024/03/23 02:32:55;;;;;;;34.05;9.55;;;;;;;9.49;100.00;97041.41;4953643;28;20122;-60
2024/03/23 02:35:21;;;;;;;38.13;11.50;;;;;;;9.56;100.00;97041.28;4950594;28;20433;-60
2024/03/23 02:37:48;;;;;;;47.50;11.60;;;;;;;9.11;100.00;97016.84;4952911;28;20027;-62
2024/03/23 02:40:14;;;;;;;24.92;9.40;;;;;;;9.57;100.00;97019.69;4954921;28;20501;-59
2024/03/23 02:42:39;;;;;;;63.20;12.20;;;;;;;9.59;100.00;97010.09;4950592;28;20228;-60
2024/03/23 02:45:05;;;;;;;33.97;10.25;;;;;;;9.52;100.00;97011.94;4953736;28;20037;-59
2024/03/23 02:47:31;;;;;;;61.47;11.82;;;;;;;9.42;100.00;97000.84;4951999;28;20326;-59
2024/03/23 02:49:56;;;;;;;36.70;10.98;;;;;;;9.20;100.00;96993.34;4949561;28;20031;-60
2024/03/23 02:52:21;;;;;;;51.42;11.25;;;;;;;9.71;100.00;96991.75;4950162;28;20138;-59
2024/03/23 02:54:47;;;;;;;38.38;10.10;;;;;;;9.89;100.00;96988.00;4951188;28;20106;-58
2024/03/23 02:57:12;;;;;;;34.50;9.30;;;;;;;9.52;100.00;96996.38;4952197;28;20143;-57
2024/03/23 02:59:37;;;;;;;86.05;13.35;;;;;;;9.40;100.00;96993.94;4950415;28;20024;-58
2024/03/23 03:02:04;;;;;;;35.53;11.15;;;;;;;9.47;100.00;96982.59;4952297;28;20551;-59
2024/03/23 03:04:30;;;;;;;55.10;12.07;;;;;;;9.35;100.00;96981.91;4950652;28;20491;-60
2024/03/23 03:06:55;;;;;;;53.22;11.13;;;;;;;9.91;100.00;96982.75;4952655;28;20122;-59
2024/03/23 03:09:21;;;;;;;32.30;10.82;;;;;;;9.38;100.00;96968.03;4953536;28;20043;-62
2024/03/23 03:11:46;;;;;;;34.92;9.98;;;;;;;10.06;100.00;96962.63;4953179;28;22267;-60
2024/03/23 03:14:12;;;;;;;36.42;10.18;;;;;;;9.68;100.00;96952.84;4952650;28;20034;-59
2024/03/23 03:16:37;;;;;;;57.13;11.38;;;;;;;9.59;100.00;96955.59;4955615;28;20031;-59
2024/03/23 03:19:03;;;;;;;40.42;11.63;;;;;;;10.03;100.00;96953.13;4953057;28;20298;-61
2024/03/23 03:21:28;;;;;;;51.38;10.63;;;;;;;10.22;100.00;96948.47;4952816;28;20043;-59
2024/03/23 03:23:56;;;;;;;34.97;8.13;;;;;;;9.64;100.00;96939.06;4953825;28;20059;-61
2024/03/23 03:26:21;;;;;;;47.03;11.23;;;;;;;9.66;100.00;96933.84;4955525;28;20143;-61
2024/03/23 03:28:48;;;;;;;31.98;9.88;;;;;;;9.46;100.00;96936.75;4952125;28;20598;-61
2024/03/23 03:31:18;;;;;;;25.00;9.77;;;;;;;9.86;100.00;96943.91;4954393;28;20133;-60
2024/03/23 03:33:43;;;;;;;57.50;13.18;;;;;;;9.80;100.00;96953.53;4952836;28;20042;-60
2024/03/23 03:36:09;;;;;;;32.67;11.70;;;;;;;9.80;100.00;96948.34;4954027;28;20496;-62
2024/03/23 03:38:38;;;;;;;55.80;11.25;;;;;;;9.80;100.00;96924.97;4952969;28;20122;-61
2024/03/23 03:41:04;;;;;;;46.67;12.43;;;;;;;9.59;100.00;96914.06;4956965;28;20037;-61
2024/03/23 03:43:29;;;;;;;47.45;11.13;;;;;;;9.38;100.00;96910.94;4953596;28;20030;-59
2024/03/23 03:45:56;;;;;;;36.10;9.80;;;;;;;9.44;100.00;96909.97;4952033;28;20412;-63
2024/03/23 03:48:21;;;;;;;42.75;11.23;;;;;;;9.46;100.00;96914.25;4954999;28;20039;-60
2024/03/23 03:50:47;;;;;;;33.85;11.23;;;;;;;9.77;100.00;96908.53;4952614;28;20116;-59
2024/03/23 03:53:12;;;;;;;32.10;11.70;;;;;;;9.47;100.00;96907.34;4952357;28;20030;-60
2024/03/23 03:55:37;;;;;;;53.05;11.05;;;;;;;9.65;100.00;96900.97;4953390;28;20815;-59
2024/03/23 03:58:04;;;;;;;43.92;11.60;;;;;;;9.62;100.00;96894.09;4953153;28;20039;-61
2024/03/23 04:00:30;;;;;;;51.33;12.98;;;;;;;9.77;100.00;96905.94;4949873;28;20031;-58
2024/03/23 04:02:55;;;;;;;37.00;13.10;;;;;;;9.87;100.00;96890.19;4954223;28;20022;-58
2024/03/23 04:05:20;;;;;;;28.90;9.70;;;;;;;10.09;100.00;96877.66;4954401;28;20042;-59
2024/03/23 04:07:46;;;;;;;51.50;11.45;;;;;;;10.40;100.00;96864.06;4951716;28;20054;-57
2024/03/23 04:10:11;;;;;;;34.63;9.25;;;;;;;9.81;100.00;96856.56;4954479;28;20027;-59
2024/03/23 04:12:37;;;;;;;48.20;11.23;;;;;;;9.82;100.00;96853.06;4953839;28;20143;-59
2024/03/23 04:15:04;;;;;;;48.97;12.05;;;;;;;10.02;100.00;96842.31;4954101;28;20479;-59
2024/03/23 04:17:31;;;;;;;36.30;10.57;;;;;;;10.07;100.00;96829.22;4953795;28;20049;-58
2024/03/23 04:19:58;;;;;;;36.35;11.57;;;;;;;9.92;100.00;96823.47;4955408;28;20029;-60
2024/03/23 04:22:26;;;;;;;49.33;10.38;;;;;;;10.03;100.00;96829.28;4952771;28;20055;-61
2024/03/23 04:24:57;;;;;;;30.17;11.20;;;;;;;10.06;100.00;96807.59;4953290;28;20030;-58
2024/03/23 04:27:23;;;;;;;33.90;9.32;;;;;;;10.07;100.00;96816.25;4951350;28;20245;-60
2024/03/23 04:29:53;;;;;;;41.95;11.43;;;;;;;10.19;100.00;96818.59;4953780;28;20033;-61
2024/03/23 04:32:18;;;;;;;36.08;8.05;;;;;;;10.21;100.00;96806.41;4950597;28;20062;-59
2024/03/23 04:34:45;;;;;;;61.25;10.27;;;;;;;10.21;100.00;96828.97;4953323;28;20400;-60
2024/03/23 04:37:10;;;;;;;38.83;8.45;;;;;;;9.99;100.00;96819.00;4954765;28;20142;-60
2024/03/23 04:39:37;;;;;;;50.28;9.23;;;;;;;10.15;100.00;96820.41;4953448;28;20592;-59
2024/03/23 04:42:03;;;;;;;47.67;9.00;;;;;;;10.26;100.00;96822.78;4952747;28;20198;-60
2024/03/23 04:44:28;;;;;;;41.53;11.75;;;;;;;10.32;100.00;96818.34;4953116;28;20431;-61
2024/03/23 04:46:54;;;;;;;31.58;9.82;;;;;;;10.64;100.00;96809.00;4952775;28;20570;-58
2024/03/23 04:49:19;;;;;;;37.75;9.73;;;;;;;10.79;100.00;96810.41;4951784;28;20031;-59
2024/03/23 04:51:46;;;;;;;41.20;8.70;;;;;;;10.84;100.00;96810.31;4952432;28;20065;-59
2024/03/23 04:54:14;;;;;;;28.20;8.13;;;;;;;10.96;100.00;96815.22;4951775;28;20082;-60
2024/03/23 04:56:40;;;;;;;52.70;9.18;;;;;;;10.64;100.00;96811.59;4951478;28;20031;-60
2024/03/23 04:59:05;;;;;;;36.90;8.45;;;;;;;10.64;100.00;96811.59;4950289;28;20041;-60
2024/03/23 05:01:33;;;;;;;44.83;9.70;;;;;;;10.58;100.00;96798.75;4953679;28;20312;-58
2024/03/23 05:03:59;;;;;;;37.97;8.00;;;;;;;10.57;100.00;96794.44;4951070;28;20023;-58
2024/03/23 05:06:25;;;;;;;38.78;13.23;;;;;;;10.61;100.00;96790.91;4951537;28;20737;-58
2024/03/23 05:08:51;;;;;;;40.75;9.32;;;;;;;10.78;100.00;96793.97;4952289;28;20035;-61
2024/03/23 05:11:16;;;;;;;33.83;11.02;;;;;;;10.86;100.00;96790.28;4952660;28;20039;-59
2024/03/23 05:13:42;;;;;;;55.72;9.70;;;;;;;10.90;100.00;96798.00;4950813;28;20031;-60
2024/03/23 05:16:08;;;;;;;33.03;8.13;;;;;;;11.05;100.00;96793.31;4950178;28;20254;-59
2024/03/23 05:18:33;;;;;;;46.05;20.50;;;;;;;10.92;100.00;96795.38;4953026;28;20034;-59
2024/03/23 05:20:59;;;;;;;35.53;7.85;;;;;;;11.10;100.00;96795.81;4951739;28;20042;-61
2024/03/23 05:23:25;;;;;;;43.30;8.20;;;;;;;11.12;100.00;96800.09;4952168;28;20050;-61
2024/03/23 05:25:51;;;;;;;43.00;8.45;;;;;;;11.17;100.00;96798.22;4951242;28;20038;-59
2024/03/23 05:28:17;;;;;;;35.83;7.72;;;;;;;11.31;100.00;96789.19;4951172;28;20445;-59
2024/03/23 05:30:43;;;;;;;59.95;9.73;;;;;;;11.28;100.00;96784.94;4949891;28;20043;-61
2024/03/23 05:33:08;;;;;;;43.33;8.20;;;;;;;11.42;100.00;96781.97;4953755;28;20511;-60
2024/03/23 05:35:34;;;;;;;46.67;7.95;;;;;;;11.99;100.00;96770.88;4955212;28;20043;-61
2024/03/23 05:37:59;;;;;;;43.42;7.65;;;;;;;12.21;100.00;96768.53;4955489;28;20046;-60
2024/03/23 05:40:26;;;;;;;41.83;8.00;;;;;;;12.16;100.00;96760.00;4953627;28;20034;-60
2024/03/23 05:42:55;;;;;;;28.90;6.78;;;;;;;12.37;100.00;96768.94;4955661;28;20050;-63
2024/03/23 05:45:22;;;;;;;40.20;7.68;;;;;;;12.75;100.00;96758.22;4956099;28;20033;-63
2024/03/23 05:47:48;;;;;;;40.75;8.00;;;;;;;13.17;100.00;96747.34;4955644;28;20497;-59
2024/03/23 05:50:14;;;;;;;22.77;6.45;;;;;;;13.87;100.00;96755.38;4954302;28;20047;-62
2024/03/23 05:52:39;;;;;;;42.67;8.02;;;;;;;15.13;100.00;96753.16;4952670;28;20035;-62
2024/03/23 05:55:06;;;;;;;22.52;6.90;;;;;;;16.20;100.00;96755.56;4954487;28;20479;-63
2024/03/23 05:57:32;;;;;;;40.05;7.20;;;;;;;15.92;100.00;96746.28;4954989;28;20046;-59
2024/03/23 05:59:57;;;;;;;28.63;6.50;;;;;;;15.73;100.00;96746.25;4953418;28;20426;-59
2024/03/23 06:02:23;;;;;;;30.40;6.53;;;;;;;14.19;100.00;96748.09;4954152;28;20455;-60
2024/03/23 06:04:49;;;;;;;58.40;8.63;;;;;;;13.85;100.00;96750.19;4955212;28;20027;-58
2024/03/23 06:07:14;;;;;;;31.50;7.10;;;;;;;13.70;100.00;96749.03;4956478;28;20082;-61
2024/03/23 06:09:43;;;;;;;59.03;8.05;;;;;;;13.37;100.00;96755.31;4955800;28;20027;-60
2024/03/23 06:12:08;;;;;;;35.20;6.20;;;;;;;13.21;100.00;96743.72;4954943;28;20039;-61
2024/03/23 06:14:34;;;;;;;34.67;6.90;;;;;;;13.23;100.00;96747.09;4955141;28;20446;-58
2024/03/23 06:17:00;;;;;;;33.00;6.90;;;;;;;13.13;100.00;96757.00;4955429;28;20039;-61
2024/03/23 06:19:27;;;;;;;41.72;7.10;;;;;;;12.98;100.00;96763.59;4953856;28;20049;-61
2024/03/23 06:21:53;;;;;;;30.42;6.07;;;;;;;12.81;100.00;96767.59;4955886;28;20521;-61
2024/03/23 06:24:19;;;;;;;28.23;6.45;;;;;;;12.70;100.00;96774.94;4985848;28;20039;-59
2024/03/23 06:26:44;;;;;;;59.80;8.35;;;;;;;12.70;100.00;96786.19;4953391;28;20231;-61
2024/03/23 06:29:10;;;;;;;30.20;5.63;;;;;;;12.40;100.00;96790.63;4952732;28;20035;-60
2024/03/23 06:31:35;;;;;;;27.48;5.97;;;;;;;12.06;100.00;96780.28;4954068;28;20470;-60
2024/03/23 06:34:01;;;;;;;37.13;8.77;;;;;;;11.82;100.00;96781.78;4954405;28;20035;-59
2024/03/23 06:36:27;;;;;;;36.10;8.38;;;;;;;11.81;100.00;96783.53;4952938;28;20039;-62
2024/03/23 06:38:52;;;;;;;60.85;15.55;;;;;;;11.75;100.00;96769.81;4953478;28;20038;-60
2024/03/23 06:41:19;;;;;;;34.95;7.85;;;;;;;11.67;100.00;96780.47;4953352;28;20122;-59
2024/03/23 06:43:44;;;;;;;54.88;16.00;;;;;;;11.59;100.00;96786.72;4954089;28;20026;-59
2024/03/23 06:46:09;;;;;;;29.55;8.93;;;;;;;11.66;100.00;96789.19;4953257;28;20178;-59
2024/03/23 06:48:35;;;;;;;32.55;9.88;;;;;;;11.90;100.00;96786.78;4953083;28;20279;-58
2024/03/23 06:51:00;;;;;;;50.00;33.58;;;;;;;11.92;100.00;96778.00;4953964;28;20163;-62
2024/03/23 06:53:25;;;;;;;26.08;8.77;;;;;;;11.86;100.00;96778.22;4953877;28;20027;-59
2024/03/23 06:55:53;;;;;;;57.50;14.63;;;;;;;12.19;100.00;96774.69;4952614;28;20049;-60
2024/03/23 06:58:23;;;;;;;35.20;12.05;;;;;;;12.14;100.00;96760.97;4954466;28;20031;-58
2024/03/23 07:00:48;;;;;;;49.75;12.77;;;;;;;12.05;100.00;96762.94;4951685;28;20039;-58
2024/03/23 07:03:14;;;;;;;28.13;13.82;;;;;;;12.15;100.00;96762.66;4955663;28;20031;-58
2024/03/23 07:05:40;;;;;;;48.67;12.18;;;;;;;12.41;100.00;96771.44;4953332;28;20046;-60
2024/03/23 07:08:05;;;;;;;46.88;9.05;;;;;;;12.23;100.00;96776.31;4952202;28;20042;-57
2024/03/23 07:10:31;;;;;;;88.57;55.70;;;;;;;12.27;100.00;96775.34;4954646;28;20050;-58
2024/03/23 07:12:56;;;;;;;29.25;10.10;;;;;;;12.24;100.00;96781.50;4953272;28;20042;-60
2024/03/23 07:15:21;;;;;;;44.15;9.40;;;;;;;12.26;100.00;96791.88;4953476;28;20038;-58
2024/03/23 07:17:47;;;;;;;48.38;8.95;;;;;;;12.30;100.00;96792.63;4954283;28;20027;-61
2024/03/23 07:20:13;;;;;;;24.13;8.43;;;;;;;12.40;100.00;96782.78;4953613;28;20031;-57
2024/03/23 07:22:39;;;;;;;51.65;10.85;;;;;;;12.44;100.00;96795.66;4950433;28;20394;-59
2024/03/23 07:25:05;;;;;;;35.88;10.18;;;;;;;12.27;100.00;96793.59;4953030;28;20087;-58
2024/03/23 07:27:31;;;;;;;44.05;12.30;;;;;;;12.28;100.00;96810.09;4952918;28;20030;-61
2024/03/23 07:29:56;;;;;;;46.08;13.02;;;;;;;11.90;100.00;96798.06;4953676;28;20466;-59
2024/03/23 07:32:21;;;;;;;36.10;7.60;;;;;;;12.02;100.00;96793.41;4985030;28;20126;-60
2024/03/23 07:34:47;;;;;;;67.50;35.58;;;;;;;12.07;100.00;96802.81;4954593;28;20026;-61
2024/03/23 07:37:13;;;;;;;106.95;94.03;;;;;;;12.10;100.00;96791.47;4954735;28;20172;-59
2024/03/23 07:39:39;;;;;;;32.88;7.10;;;;;;;11.92;100.00;96792.81;4951977;28;20085;-59
2024/03/23 07:42:05;;;;;;;30.75;7.90;;;;;;;11.82;100.00;96803.50;4953420;28;20121;-60
2024/03/23 07:44:30;;;;;;;36.33;9.10;;;;;;;11.98;100.00;96795.22;4953555;28;20470;-59
2024/03/23 07:46:56;;;;;;;47.67;9.95;;;;;;;11.92;100.00;96808.44;4951906;28;20062;-58
2024/03/23 07:49:21;;;;;;;41.30;17.90;;;;;;;12.06;100.00;96824.56;4952737;28;20110;-59
2024/03/23 07:51:46;;;;;;;61.67;30.92;;;;;;;11.90;100.00;96823.25;4953004;28;20042;-60
2024/03/23 07:54:12;;;;;;;26.55;7.78;;;;;;;11.76;100.00;96827.09;4954223;28;20188;-61
2024/03/23 07:56:37;;;;;;;38.05;9.25;;;;;;;11.97;100.00;96835.22;4952376;28;20090;-60
2024/03/23 07:59:05;;;;;;;35.60;10.82;;;;;;;12.02;100.00;96841.16;4953292;28;20491;-60
2024/03/23 08:01:31;;;;;;;42.10;16.77;;;;;;;12.08;100.00;96842.78;4953388;28;20039;-59
2024/03/23 08:03:56;;;;;;;59.85;10.80;;;;;;;12.20;100.00;96832.00;4985171;28;20678;-59
2024/03/23 08:06:23;;;;;;;26.02;6.82;;;;;;;12.50;100.00;96837.22;4955112;28;20041;-58
2024/03/23 08:08:59;;;;;;;53.70;9.15;;;;;;;13.09;100.00;96842.41;4953215;28;20113;-58
2024/03/23 08:11:24;;;;;;;27.63;7.65;;;;;;;13.07;100.00;96836.38;4960739;28;20086;-58
2024/03/23 08:13:50;;;;;;;35.13;8.32;;;;;;;12.80;100.00;96841.56;4962926;28;20027;-59
2024/03/23 08:16:15;;;;;;;23.50;7.32;;;;;;;13.08;100.00;96840.69;4958288;28;20039;-59
2024/03/23 08:18:40;;;;;;;42.78;9.20;;;;;;;13.23;100.00;96830.66;4952518;28;20031;-58
2024/03/23 08:21:06;;;;;;;28.45;7.03;;;;;;;13.63;100.00;96839.78;4951688;28;20046;-58
2024/03/23 08:23:33;;;;;;;34.15;7.53;;;;;;;13.09;100.00;96870.25;4953183;28;20039;-58
2024/03/23 08:26:00;;;;;;;36.13;7.93;;;;;;;12.61;100.00;96873.44;4949819;28;21493;-66
2024/03/23 08:28:26;;;;;;;58.53;9.55;;;;;;;11.70;100.00;96892.38;4950759;28;20373;-60
2024/03/23 08:30:53;;;;;;;55.92;10.02;;;;;;;11.18;100.00;96918.78;4951782;28;20039;-58
2024/03/23 08:33:18;;;;;;;39.63;25.90;;;;;;;11.03;100.00;96923.44;4952378;28;20118;-60
2024/03/23 08:35:57;;;;;;;37.83;21.35;;;;;;;10.99;100.00;96955.59;4952279;28;20150;-57
2024/03/23 08:38:26;;;;;;;48.53;29.20;;;;;;;10.78;100.00;96959.53;4952208;28;20033;-59
2024/03/23 08:41:05;;;;;;;58.00;22.23;;;;;;;10.76;100.00;96977.78;4949513;28;20047;-59
2024/03/23 08:43:35;;;;;;;70.18;43.03;;;;;;;10.79;100.00;96979.44;4952993;28;20031;-59
2024/03/23 08:46:10;;;;;;;36.13;14.95;;;;;;;10.92;100.00;96982.66;4950330;28;20499;-58
2024/03/23 08:48:43;;;;;;;44.28;18.98;;;;;;;11.25;100.00;96992.38;4951361;28;20023;-58
2024/03/23 08:51:10;;;;;;;48.85;21.80;;;;;;;11.28;100.00;97003.56;4952979;28;20042;-60
2024/03/23 08:53:36;;;;;;;73.47;46.55;;;;;;;12.07;100.00;96992.22;4959766;28;20067;-57
2024/03/23 08:56:02;;;;;;;45.72;15.25;;;;;;;12.61;100.00;96996.00;4952078;28;20062;-57
2024/03/23 08:58:28;;;;;;;74.15;65.90;;;;;;;15.19;100.00;97006.94;4952831;28;20054;-59
2024/03/23 09:00:58;;;;;;;47.15;6.68;;;;;;;13.35;100.00;97005.22;4951272;28;20039;-60
2024/03/23 09:03:26;;;;;;;34.40;14.60;;;;;;;12.88;100.00;97026.59;4952864;28;20304;-60
2024/03/23 09:05:52;;;;;;;79.20;52.97;;;;;;;13.90;100.00;97017.50;4951332;28;20050;-58
2024/03/23 09:08:18;;;;;;;45.50;17.13;;;;;;;13.74;100.00;97029.34;4955373;28;20304;-59
2024/03/23 09:10:44;;;;;;;46.08;23.50;;;;;;;13.44;100.00;97047.63;4954449;28;20396;-58
2024/03/23 09:13:09;;;;;;;33.75;16.85;;;;;;;12.48;100.00;97059.84;4956947;28;20026;-60
2024/03/23 09:15:36;;;;;;;56.78;21.73;;;;;;;11.84;100.00;97053.56;4954831;28;20042;-61
2024/03/23 09:18:05;;;;;;;29.92;7.18;;;;;;;11.80;100.00;97081.41;4955792;28;20081;-58
2024/03/23 09:20:33;;;;;;;76.30;37.20;;;;;;;11.29;100.00;97085.97;4955486;28;20122;-60
2024/03/23 09:22:59;;;;;;;47.50;7.30;;;;;;;11.58;100.00;97100.13;4956479;28;20046;-61
2024/03/23 09:25:24;;;;;;;28.38;5.95;;;;;;;13.18;100.00;97097.09;4955344;28;20447;-60
2024/03/23 09:27:50;;;;;;;61.53;7.30;;;;;;;12.66;100.00;97096.78;4953341;28;20118;-61
2024/03/23 09:30:15;;;;;;;34.78;20.33;;;;;;;11.78;100.00;97104.03;4954002;28;20114;-58
2024/03/23 09:32:43;;;;;;;46.40;24.27;;;;;;;11.53;100.00;97109.78;4954151;28;20034;-61
2024/03/23 09:35:08;;;;;;;40.53;5.88;;;;;;;10.98;100.00;97124.78;4952910;28;20030;-61
2024/03/23 09:37:34;;;;;;;31.23;5.15;;;;;;;11.32;100.00;97121.50;4953702;28;20019;-60
2024/03/23 09:39:59;;;;;;;118.35;78.20;;;;;;;11.49;100.00;97102.94;4953996;28;20030;-60
2024/03/23 09:42:24;;;;;;;32.75;5.57;;;;;;;11.91;100.00;97108.97;4952821;28;20046;-60
2024/03/23 09:44:51;;;;;;;48.50;7.47;;;;;;;14.25;100.00;97127.03;4954329;28;20510;-59
2024/03/23 09:47:17;;;;;;;22.13;6.63;;;;;;;17.81;100.00;97123.84;4954332;28;20373;-59
2024/03/23 09:49:43;;;;;;;35.08;12.18;;;;;;;19.48;93.73;97119.16;4956311;28;20061;-60
2024/03/23 09:52:08;;;;;;;21.13;3.83;;;;;;;18.58;90.57;97131.63;4953022;28;20608;-58
2024/03/23 09:54:34;;;;;;;22.70;4.40;;;;;;;17.03;89.11;97138.66;4953771;28;20339;-59
2024/03/23 09:56:59;;;;;;;43.05;5.88;;;;;;;17.61;82.35;97132.66;4952494;28;20038;-60
2024/03/23 09:59:26;;;;;;;27.63;4.63;;;;;;;16.28;90.22;97127.75;4955157;28;20484;-61
2024/03/23 10:01:52;;;;;;;46.30;6.10;;;;;;;15.18;100.00;97137.97;4953126;28;20069;-60
2024/03/23 10:04:37;;;;;;;29.15;5.07;;;;;;;14.26;100.00;97141.00;4955130;28;20479;-58
2024/03/23 10:07:22;;;;;;;63.90;6.45;;;;;;;14.29;100.00;97146.13;4954112;28;20455;-60
2024/03/23 10:09:48;;;;;;;35.60;5.18;;;;;;;14.15;100.00;97162.25;4955153;28;20042;-60
2024/03/23 10:12:15;;;;;;;30.90;10.15;;;;;;;13.89;100.00;97162.13;4952265;28;20035;-58
2024/03/23 10:14:40;;;;;;;36.50;5.22;;;;;;;14.21;100.00;97169.06;4954477;28;20031;-58
2024/03/23 10:17:19;;;;;;;37.80;5.57;;;;;;;13.32;100.00;97158.53;4954976;28;20037;-60
2024/03/23 10:19:49;;;;;;;35.58;5.10;;;;;;;13.21;100.00;97162.28;4952809;28;20049;-58
2024/03/23 10:22:20;;;;;;;28.60;8.15;;;;;;;14.25;100.00;97168.06;4953949;28;20127;-59
2024/03/23 10:24:46;;;;;;;36.08;5.80;;;;;;;17.30;100.00;97158.56;4954441;28;20488;-59
2024/03/23 10:27:16;;;;;;;34.00;6.35;;;;;;;16.58;100.00;97164.16;4954303;28;20050;-59
2024/03/23 10:29:41;;;;;;;25.00;5.72;;;;;;;18.36;100.00;97164.28;4955272;28;20034;-58
2024/03/23 10:32:11;;;;;;;34.53;5.55;;;;;;;18.24;100.00;97167.50;4951328;28;20039;-59
2024/03/23 10:34:37;;;;;;;36.17;18.33;;;;;;;18.92;100.00;97182.63;4953956;28;20030;-61
2024/03/23 10:37:03;;;;;;;52.20;6.63;;;;;;;17.47;100.00;97194.59;4953012;28;20400;-61
2024/03/23 10:39:39;;;;;;;27.08;4.15;;;;;;;14.69;98.38;97225.94;4953160;28;20055;-58
2024/03/23 10:42:12;;;;;;;37.67;10.30;;;;;;;13.48;100.00;97230.34;4953540;28;20630;-58
2024/03/23 10:44:38;;;;;;;36.85;6.03;;;;;;;12.46;100.00;97245.03;4953080;28;20478;-62
2024/03/23 10:47:04;;;;;;;52.92;6.18;;;;;;;12.54;100.00;97244.84;4952483;28;20023;-59
2024/03/23 10:49:34;;;;;;;27.42;4.88;;;;;;;13.13;100.00;97227.75;4952310;28;20043;-62
2024/03/23 10:52:01;;;;;;;52.17;8.18;;;;;;;13.78;100.00;97204.25;4953593;28;20488;-58
2024/03/23 10:54:27;;;;;;;29.05;4.35;;;;;;;15.31;84.10;97198.63;4954288;28;20050;-59
2024/03/23 10:57:09;;;;;;;33.45;5.97;;;;;;;15.01;100.00;97196.16;4953263;28;20471;-60
2024/03/23 10:59:37;;;;;;;23.70;4.72;;;;;;;14.53;100.00;97222.97;4953192;28;20039;-59
2024/03/23 11:02:03;;;;;;;56.67;7.45;;;;;;;13.60;100.00;97231.78;4951455;28;20623;-59
2024/03/23 11:04:35;;;;;;;30.67;4.82;;;;;;;13.53;100.00;97245.91;4953406;28;20030;-59
2024/03/23 11:07:24;;;;;;;61.95;10.95;;;;;;;13.69;100.00;97216.75;4951691;28;20094;-58
2024/03/23 11:09:53;;;;;;;30.73;4.75;;;;;;;13.38;100.00;97218.41;4952590;28;20426;-58
2024/03/23 11:12:22;;;;;;;32.67;6.75;;;;;;;14.29;100.00;97208.91;4952354;28;20035;-58
2024/03/23 11:14:49;;;;;;;34.10;5.68;;;;;;;14.42;93.03;97205.00;4952630;28;20378;-61